createdAt,value
2022-10-03T00:02:32.095Z,11.20
2022-10-03T00:05:11.902Z,11.30
2022-10-03T00:08:00.436Z,11.30
2022-10-03T00:10:37.129Z,11.30
2022-10-03T00:13:13.404Z,11.30
2022-10-03T00:15:49.867Z,11.40
2022-10-03T00:18:29.080Z,11.40
2022-10-03T00:21:26.437Z,11.40
2022-10-03T00:24:04.835Z,11.40
2022-10-03T00:26:46.365Z,11.40
2022-10-03T00:29:29.357Z,11.40
2022-10-03T00:32:07.819Z,11.30
2022-10-03T00:34:50.005Z,11.40
2022-10-03T00:37:27.413Z,11.30
2022-10-03T00:40:36.998Z,11.30
2022-10-03T00:43:36.976Z,11.30
2022-10-03T00:46:50.314Z,11.30
2022-10-03T00:49:59.871Z,11.30
2022-10-03T00:52:47.917Z,11.30
2022-10-03T00:55:24.473Z,11.30
2022-10-03T00:58:15.784Z,11.20
2022-10-03T01:00:52.039Z,11.30
2022-10-03T01:03:37.011Z,11.20
2022-10-03T01:06:29.033Z,11.20
2022-10-03T01:09:23.961Z,11.20
2022-10-03T01:12:09.647Z,11.20
2022-10-03T01:14:54.685Z,11.20
2022-10-03T01:17:35.304Z,11.10
2022-10-03T01:20:20.041Z,11.20
2022-10-03T01:23:15.836Z,11.10
2022-10-03T01:25:53.206Z,11.20
2022-10-03T01:29:04.819Z,11.20
2022-10-03T01:31:39.986Z,11.20
2022-10-03T01:34:17.532Z,11.30
2022-10-03T01:36:55.246Z,11.30
2022-10-03T01:39:28.691Z,11.30
2022-10-03T01:42:01.498Z,11.30
2022-10-03T01:44:41.707Z,11.30
2022-10-03T01:47:27.273Z,11.30
2022-10-03T01:50:05.925Z,11.30
2022-10-03T01:52:44.421Z,11.30
2022-10-03T01:55:24.626Z,11.30
2022-10-03T01:58:01.159Z,11.20
2022-10-03T02:00:36.990Z,11.30
2022-10-03T02:03:12.303Z,11.30
2022-10-03T02:05:49.145Z,11.30
2022-10-03T02:08:30.251Z,11.30
2022-10-03T02:11:03.413Z,11.30
2022-10-03T02:13:42.222Z,11.40
2022-10-03T02:16:21.336Z,11.40
2022-10-03T02:18:56.526Z,11.40
2022-10-03T02:21:26.979Z,11.30
2022-10-03T02:24:18.932Z,11.40
2022-10-03T02:27:28.906Z,11.40
2022-10-03T02:30:14.459Z,11.50
2022-10-03T02:33:28.305Z,11.50
2022-10-03T02:36:36.043Z,11.40
2022-10-03T02:39:39.662Z,11.50
2022-10-03T02:42:45.409Z,11.40
2022-10-03T02:45:54.272Z,11.50
2022-10-03T02:49:01.580Z,11.50
2022-10-03T02:51:58.882Z,11.50
2022-10-03T02:54:54.825Z,11.40
2022-10-03T02:57:49.841Z,11.40
2022-10-03T03:00:21.934Z,11.30
2022-10-03T03:03:22.362Z,11.40
2022-10-03T03:06:20.602Z,11.50
2022-10-03T03:09:39.411Z,11.50
2022-10-03T03:12:45.066Z,11.50
2022-10-03T03:15:47.648Z,11.50
2022-10-03T03:18:24.711Z,11.50
2022-10-03T03:21:07.877Z,11.50
2022-10-03T03:24:02.182Z,11.50
2022-10-03T03:26:53.290Z,11.50
2022-10-03T03:29:32.166Z,11.60
2022-10-03T03:32:06.997Z,11.60
2022-10-03T03:34:44.961Z,11.60
2022-10-03T03:37:20.677Z,11.50
2022-10-03T03:40:08.055Z,11.50
2022-10-03T03:42:58.633Z,11.50
2022-10-03T03:45:46.772Z,11.50
2022-10-03T03:48:32.595Z,11.50
2022-10-03T03:51:17.979Z,11.60
2022-10-03T03:54:05.870Z,11.60
2022-10-03T03:56:46.794Z,11.70
2022-10-03T03:59:31.133Z,11.60
2022-10-03T04:02:16.711Z,11.60
2022-10-03T04:04:56.885Z,11.70
2022-10-03T04:07:45.097Z,11.70
2022-10-03T04:10:22.700Z,11.70
2022-10-03T04:13:12.133Z,11.70
2022-10-03T04:16:00.114Z,11.60
2022-10-03T04:18:57.984Z,11.60
2022-10-03T04:22:12.501Z,11.70
2022-10-03T04:25:00.697Z,11.70
2022-10-03T04:27:48.913Z,11.70
2022-10-03T04:30:20.667Z,11.70
2022-10-03T04:33:07.483Z,11.80
2022-10-03T04:36:14.345Z,11.80
2022-10-03T04:38:50.216Z,11.70
2022-10-03T04:41:30.248Z,11.70
2022-10-03T04:44:12.076Z,11.70
2022-10-03T04:46:46.365Z,11.70
2022-10-03T04:49:26.806Z,11.70
2022-10-03T04:52:03.681Z,11.70
2022-10-03T04:54:43.567Z,11.60
2022-10-03T04:57:23.909Z,11.60
2022-10-03T04:59:59.663Z,11.60
2022-10-03T05:02:41.731Z,11.60
2022-10-03T05:05:41.211Z,11.60
2022-10-03T05:08:23.622Z,11.60
2022-10-03T05:11:13.709Z,11.60
2022-10-03T05:13:53.275Z,11.50
2022-10-03T05:16:34.178Z,11.50
2022-10-03T05:19:20.590Z,11.60
2022-10-03T05:21:56.641Z,11.60
2022-10-03T05:24:36.153Z,11.60
2022-10-03T05:27:21.021Z,11.60
2022-10-03T05:29:59.801Z,11.60
2022-10-03T05:32:32.559Z,11.70
2022-10-03T05:35:14.871Z,11.70
2022-10-03T05:38:02.827Z,11.70
2022-10-03T05:40:35.781Z,11.70
2022-10-03T05:43:11.292Z,11.80
2022-10-03T05:45:50.109Z,11.80
2022-10-03T05:48:32.987Z,11.80
2022-10-03T05:51:13.220Z,11.80
2022-10-03T05:54:07.781Z,11.80
2022-10-03T05:56:58.097Z,11.90
2022-10-03T06:00:02.339Z,12.00
2022-10-03T06:03:05.010Z,12.00
2022-10-03T06:05:37.991Z,12.10
2022-10-03T06:08:40.569Z,12.10
2022-10-03T06:11:22.766Z,12.10
2022-10-03T06:14:22.094Z,12.10
2022-10-03T06:16:59.483Z,12.20
2022-10-03T06:19:44.476Z,12.20
2022-10-03T06:22:41.557Z,12.20
2022-10-03T06:25:37.713Z,12.30
2022-10-03T06:28:42.676Z,12.40
2022-10-03T06:31:52.670Z,12.40
2022-10-03T06:34:51.689Z,12.50
2022-10-03T06:37:50.751Z,12.40
2022-10-03T06:40:51.496Z,12.40
2022-10-03T06:44:00.482Z,12.40
2022-10-03T06:47:10.008Z,12.40
2022-10-03T06:50:13.941Z,12.40
2022-10-03T06:53:09.620Z,12.30
2022-10-03T06:56:05.922Z,12.30
2022-10-03T06:59:08.507Z,12.30
2022-10-03T07:02:04.467Z,12.30
2022-10-03T07:05:40.827Z,12.30
2022-10-03T07:08:53.376Z,12.40
2022-10-03T07:11:48.149Z,12.40
2022-10-03T07:14:44.585Z,12.40
2022-10-03T07:17:45.344Z,12.50
2022-10-03T07:20:48.776Z,12.50
2022-10-03T07:24:02.971Z,12.60
2022-10-03T07:27:02.814Z,12.60
2022-10-03T07:29:56.742Z,12.60
2022-10-03T07:32:51.890Z,12.60
2022-10-03T07:35:59.196Z,12.60
2022-10-03T07:39:00.794Z,12.70
2022-10-03T07:41:47.912Z,12.80
2022-10-03T07:44:44.333Z,13.00
2022-10-03T07:47:47.557Z,13.20
2022-10-03T07:50:55.586Z,13.30
2022-10-03T07:53:50.043Z,13.30
2022-10-03T07:56:41.025Z,13.30
2022-10-03T07:59:34.720Z,13.30
2022-10-03T08:02:25.150Z,13.30
2022-10-03T08:05:13.660Z,13.40
2022-10-03T08:08:09.487Z,13.40
2022-10-03T08:11:04.723Z,13.40
2022-10-03T08:13:49.059Z,13.40
2022-10-03T08:16:35.143Z,13.40
2022-10-03T08:19:26.532Z,13.30
2022-10-03T08:22:06.355Z,13.40
2022-10-03T08:25:03.316Z,13.30
2022-10-03T08:27:54.968Z,13.40
2022-10-03T08:30:30.747Z,13.50
2022-10-03T08:33:26.554Z,13.60
2022-10-03T08:36:48.991Z,13.70
2022-10-03T08:39:35.541Z,13.60
2022-10-03T08:42:35.203Z,13.70
2022-10-03T08:45:45.375Z,13.70
2022-10-03T08:48:56.216Z,13.70
2022-10-03T08:51:59.684Z,13.70
2022-10-03T08:55:02.971Z,13.70
2022-10-03T08:58:22.139Z,13.70
2022-10-03T09:01:16.040Z,13.70
2022-10-03T09:04:20.133Z,13.70
2022-10-03T09:07:22.023Z,13.70
2022-10-03T09:10:32.408Z,13.70
2022-10-03T09:13:28.322Z,13.70
2022-10-03T09:16:34.827Z,13.70
2022-10-03T09:19:26.526Z,13.80
2022-10-03T09:22:13.298Z,13.80
2022-10-03T09:25:23.149Z,13.70
2022-10-03T09:28:19.223Z,13.70
2022-10-03T09:31:03.967Z,13.80
2022-10-03T09:34:13.136Z,13.70
2022-10-03T09:37:18.283Z,13.70
2022-10-03T09:40:16.173Z,13.70
2022-10-03T09:43:18.682Z,13.60
2022-10-03T09:46:17.080Z,13.60
2022-10-03T09:49:21.755Z,13.60
2022-10-03T09:52:08.158Z,13.60
2022-10-03T09:55:06.739Z,13.50
2022-10-03T09:58:05.371Z,13.50
2022-10-03T10:00:49.346Z,13.50
2022-10-03T10:03:50.332Z,13.60
2022-10-03T10:06:35.724Z,13.60
2022-10-03T10:09:40.752Z,13.70
2022-10-03T10:12:25.576Z,13.80
2022-10-03T10:15:21.703Z,13.80
2022-10-03T10:18:28.839Z,13.90
2022-10-03T10:21:35.959Z,13.80
2022-10-03T10:24:46.624Z,13.90
2022-10-03T10:27:57.395Z,14.00
2022-10-03T10:30:47.117Z,14.00
2022-10-03T10:33:43.814Z,14.10
2022-10-03T10:37:17.129Z,14.10
2022-10-03T10:40:18.980Z,14.10
2022-10-03T10:43:28.590Z,14.10
2022-10-03T10:46:17.771Z,14.10
2022-10-03T10:49:28.577Z,14.10
2022-10-03T10:52:30.136Z,13.90
2022-10-03T10:55:54.919Z,13.90
2022-10-03T10:58:58.205Z,13.80
2022-10-03T11:02:15.663Z,13.90
2022-10-03T11:05:29.754Z,13.80
2022-10-03T11:08:41.785Z,13.90
2022-10-03T11:11:53.600Z,14.00
2022-10-03T11:14:54.752Z,14.00
2022-10-03T11:18:02.002Z,14.20
2022-10-03T11:21:26.014Z,14.40
2022-10-03T11:24:28.488Z,14.60
2022-10-03T11:27:31.740Z,14.90
2022-10-03T11:30:21.736Z,15.00
2022-10-03T11:33:31.011Z,15.20
2022-10-03T11:36:35.462Z,15.30
2022-10-03T11:39:06.399Z,15.50
2022-10-03T11:41:47.598Z,15.60
2022-10-03T11:44:23.566Z,15.80
2022-10-03T11:47:17.774Z,15.90
2022-10-03T11:50:31.802Z,15.90
2022-10-03T11:53:26.366Z,15.90
2022-10-03T11:56:09.530Z,15.90
2022-10-03T11:58:53.291Z,16.00
2022-10-03T12:01:30.992Z,16.10
2022-10-03T12:04:10.606Z,16.10
2022-10-03T12:07:19.515Z,16.30
2022-10-03T12:10:01.414Z,16.40
2022-10-03T12:12:37.510Z,16.40
2022-10-03T12:15:22.563Z,16.40
2022-10-03T12:18:00.247Z,16.30
2022-10-03T12:20:36.130Z,16.30
2022-10-03T12:23:19.617Z,16.40
2022-10-03T12:25:54.255Z,16.40
2022-10-03T12:28:26.161Z,16.50
2022-10-03T12:30:57.943Z,16.60
2022-10-03T12:33:39.316Z,16.60
2022-10-03T12:36:15.420Z,16.80
2022-10-03T12:38:57.431Z,16.80
2022-10-03T12:41:44.274Z,16.80
2022-10-03T12:44:27.551Z,16.90
2022-10-03T12:47:06.300Z,17.00
2022-10-03T12:49:47.955Z,17.10
2022-10-03T12:52:22.894Z,17.00
2022-10-03T12:54:57.877Z,17.00
2022-10-03T12:57:49.795Z,17.00
2022-10-03T13:00:26.855Z,17.00
2022-10-03T13:03:15.209Z,17.10
2022-10-03T13:06:51.023Z,17.20
2022-10-03T13:09:25.421Z,17.30
2022-10-03T13:12:06.303Z,17.20
2022-10-03T13:15:30.125Z,17.30
2022-10-03T13:18:11.958Z,17.30
2022-10-03T13:20:51.149Z,17.30
2022-10-03T13:23:24.930Z,17.10
2022-10-03T13:26:06.290Z,17.10
2022-10-03T13:28:50.104Z,16.90
2022-10-03T13:31:24.894Z,16.70
2022-10-03T13:33:56.692Z,16.60
2022-10-03T13:36:30.524Z,16.40
2022-10-03T13:39:12.620Z,16.30
2022-10-03T13:41:59.744Z,16.30
2022-10-03T13:44:37.485Z,16.20
2022-10-03T13:47:28.539Z,16.20
2022-10-03T13:50:01.423Z,16.10
2022-10-03T13:52:40.273Z,16.10
2022-10-03T13:55:18.760Z,16.20
2022-10-03T13:58:15.243Z,16.20
2022-10-03T14:00:57.296Z,16.20
2022-10-03T14:03:34.282Z,16.20
2022-10-03T14:06:13.761Z,16.20
2022-10-03T14:09:09.708Z,16.20
2022-10-03T14:11:47.623Z,16.10
2022-10-03T14:14:45.128Z,16.00
2022-10-03T14:17:20.600Z,16.00
2022-10-03T14:20:08.495Z,16.00
2022-10-03T14:22:52.087Z,15.90
2022-10-03T14:25:25.845Z,15.80
2022-10-03T14:27:56.681Z,15.80
2022-10-03T14:30:28.587Z,15.80
2022-10-03T14:33:04.976Z,15.80
2022-10-03T14:35:40.441Z,15.60
2022-10-03T14:38:20.604Z,15.60
2022-10-03T14:40:50.638Z,15.60
2022-10-03T14:43:30.205Z,15.50
2022-10-03T14:46:00.782Z,15.40
2022-10-03T14:48:32.481Z,15.30
2022-10-03T14:51:09.434Z,15.30
2022-10-03T14:53:39.836Z,15.30
2022-10-03T14:56:11.780Z,15.10
2022-10-03T14:58:46.086Z,15.10
2022-10-03T15:01:19.385Z,15.10
2022-10-03T15:04:01.514Z,15.00
2022-10-03T15:06:55.003Z,14.90
2022-10-03T15:09:42.845Z,14.80
2022-10-03T15:12:16.513Z,14.80
2022-10-03T15:14:48.757Z,14.80
2022-10-03T15:17:21.222Z,14.70
2022-10-03T15:19:55.009Z,14.70
2022-10-03T15:22:36.447Z,14.60
2022-10-03T15:25:13.907Z,14.60
2022-10-03T15:27:44.838Z,14.50
2022-10-03T15:30:22.338Z,14.50
2022-10-03T15:32:51.671Z,14.60
2022-10-03T15:35:25.055Z,14.50
2022-10-03T15:37:57.643Z,14.50
2022-10-03T15:40:32.523Z,14.50
2022-10-03T15:43:07.997Z,14.50
2022-10-03T15:45:38.019Z,14.50
2022-10-03T15:48:13.201Z,14.40
2022-10-03T15:50:43.804Z,14.30
2022-10-03T15:53:36.034Z,14.20
2022-10-03T15:56:12.160Z,14.20
2022-10-03T15:58:46.401Z,14.10
2022-10-03T16:01:21.399Z,14.00
2022-10-03T16:03:52.575Z,14.00
2022-10-03T16:06:23.359Z,14.00
2022-10-03T16:09:01.920Z,13.90
2022-10-03T16:11:39.480Z,13.90
2022-10-03T16:14:19.517Z,13.80
2022-10-03T16:16:51.958Z,13.70
2022-10-03T16:19:40.144Z,13.60
2022-10-03T16:22:20.336Z,13.70
2022-10-03T16:24:59.541Z,13.70
2022-10-03T16:27:30.117Z,13.70
2022-10-03T16:30:19.141Z,13.70
2022-10-03T16:32:54.851Z,13.70
2022-10-03T16:35:33.999Z,13.70
2022-10-03T16:38:04.265Z,13.70
2022-10-03T16:40:38.067Z,13.60
2022-10-03T16:43:09.795Z,13.50
2022-10-03T16:45:43.026Z,13.50
2022-10-03T16:48:33.122Z,13.50
2022-10-03T16:51:02.691Z,13.40
2022-10-03T16:53:31.146Z,13.40
2022-10-03T16:56:07.189Z,13.30
2022-10-03T16:58:40.975Z,13.40
2022-10-03T17:01:26.831Z,13.30
2022-10-03T17:04:00.899Z,13.20
2022-10-03T17:06:32.256Z,13.20
2022-10-03T17:09:05.471Z,13.20
2022-10-03T17:11:38.249Z,13.10
2022-10-03T17:14:09.542Z,13.10
2022-10-03T17:16:45.039Z,13.00
2022-10-03T17:19:25.291Z,12.90
2022-10-03T17:21:55.936Z,12.90
2022-10-03T17:24:39.918Z,12.90
2022-10-03T17:27:16.783Z,12.90
2022-10-03T17:29:50.770Z,12.90
2022-10-03T17:32:24.699Z,12.80
2022-10-03T17:35:00.244Z,12.80
2022-10-03T17:37:48.369Z,12.80
2022-10-03T17:40:23.046Z,12.70
2022-10-03T17:42:57.132Z,12.60
2022-10-03T17:45:40.138Z,12.60
2022-10-03T17:48:15.376Z,12.60
2022-10-03T17:50:55.214Z,12.50
2022-10-03T17:53:28.667Z,12.50
2022-10-03T17:55:59.174Z,12.40
2022-10-03T17:58:31.652Z,12.40
2022-10-03T18:01:07.431Z,12.40
2022-10-03T18:03:42.120Z,12.30
2022-10-03T18:06:39.432Z,12.30
2022-10-03T18:09:22.797Z,12.20
2022-10-03T18:11:57.450Z,12.20
2022-10-03T18:14:37.442Z,12.20
2022-10-03T18:17:14.340Z,12.20
2022-10-03T18:19:57.747Z,12.20
2022-10-03T18:22:35.118Z,12.10
2022-10-03T18:25:34.336Z,12.00
2022-10-03T18:28:12.861Z,12.00
2022-10-03T18:30:47.708Z,12.00
2022-10-03T18:33:20.269Z,12.00
2022-10-03T18:35:50.680Z,12.00
2022-10-03T18:38:22.493Z,12.00
2022-10-03T18:40:53.516Z,12.00
2022-10-03T18:43:29.283Z,11.90
2022-10-03T18:46:07.966Z,11.90
2022-10-03T18:48:43.852Z,12.00
2022-10-03T18:51:16.830Z,11.90
2022-10-03T18:53:49.825Z,11.90
2022-10-03T18:56:25.062Z,11.90
2022-10-03T18:59:18.107Z,11.80
2022-10-03T19:01:52.999Z,11.80
2022-10-03T19:04:35.584Z,11.80
2022-10-03T19:07:14.799Z,11.80
2022-10-03T19:10:19.539Z,11.70
2022-10-03T19:12:51.334Z,11.80
2022-10-03T19:15:27.449Z,11.70
2022-10-03T19:18:12.422Z,11.70
2022-10-03T19:20:44.595Z,11.70
2022-10-03T19:23:18.919Z,11.70
2022-10-03T19:25:56.609Z,11.70
2022-10-03T19:28:30.111Z,11.70
2022-10-03T19:31:01.664Z,11.60
2022-10-03T19:33:33.346Z,11.60
2022-10-03T19:36:05.860Z,11.50
2022-10-03T19:38:36.940Z,11.50
2022-10-03T19:41:14.602Z,11.60
2022-10-03T19:43:44.594Z,11.50
2022-10-03T19:46:23.296Z,11.50
2022-10-03T19:49:10.619Z,11.50
2022-10-03T19:51:39.140Z,11.50
2022-10-03T19:54:14.593Z,11.50
2022-10-03T19:56:42.882Z,11.50
2022-10-03T19:59:16.593Z,11.50
2022-10-03T20:01:46.092Z,11.50
2022-10-03T20:04:19.569Z,11.50
2022-10-03T20:06:51.151Z,11.60
2022-10-03T20:09:25.385Z,11.60
2022-10-03T20:11:57.987Z,11.60
2022-10-03T20:14:32.261Z,11.50
2022-10-03T20:17:06.167Z,11.50
2022-10-03T20:19:44.049Z,11.60
2022-10-03T20:22:15.102Z,11.60
2022-10-03T20:24:46.316Z,11.70
2022-10-03T20:27:25.725Z,11.70
2022-10-03T20:30:03.577Z,11.70
2022-10-03T20:32:33.579Z,11.70
2022-10-03T20:35:03.175Z,11.70
2022-10-03T20:37:42.681Z,11.80
2022-10-03T20:40:25.906Z,11.80
2022-10-03T20:43:03.296Z,11.80
2022-10-03T20:45:37.196Z,11.70
2022-10-03T20:48:08.633Z,11.90
2022-10-03T20:50:42.168Z,11.90
2022-10-03T20:53:18.610Z,11.90
2022-10-03T20:55:50.441Z,11.90
2022-10-03T20:58:31.064Z,12.00
2022-10-03T21:01:02.944Z,11.90
2022-10-03T21:03:39.199Z,11.90
2022-10-03T21:06:18.683Z,12.00
2022-10-03T21:08:50.135Z,12.00
2022-10-03T21:11:23.396Z,11.90
2022-10-03T21:13:57.747Z,11.90
2022-10-03T21:16:31.719Z,12.00
2022-10-03T21:19:02.758Z,11.90
2022-10-03T21:21:42.240Z,12.00
2022-10-03T21:24:16.719Z,12.00
2022-10-03T21:26:47.770Z,11.90
2022-10-03T21:29:18.868Z,12.00
2022-10-03T21:31:53.666Z,12.00
2022-10-03T21:34:30.901Z,12.00
2022-10-03T21:37:13.426Z,12.00
2022-10-03T21:39:54.792Z,12.00
2022-10-03T21:42:27.026Z,12.00
2022-10-03T21:45:19.122Z,11.90
2022-10-03T21:47:51.850Z,12.00
2022-10-03T21:50:23.865Z,12.00
2022-10-03T21:53:22.198Z,12.00
2022-10-03T21:56:15.328Z,11.90
2022-10-03T21:59:03.310Z,12.00
2022-10-03T22:01:38.055Z,12.00
2022-10-03T22:04:12.755Z,11.90
2022-10-03T22:06:49.283Z,11.90
2022-10-03T22:09:18.704Z,11.90
2022-10-03T22:11:51.155Z,11.90
2022-10-03T22:14:27.378Z,11.90
2022-10-03T22:17:04.064Z,11.90
2022-10-03T22:19:37.758Z,11.90
2022-10-03T22:22:20.085Z,11.90
2022-10-03T22:25:06.985Z,11.90
2022-10-03T22:27:42.963Z,11.90
2022-10-03T22:30:14.563Z,11.80
2022-10-03T22:32:49.787Z,11.80
2022-10-03T22:35:33.968Z,11.70
2022-10-03T22:38:03.220Z,11.70
2022-10-03T22:40:33.825Z,11.70
2022-10-03T22:43:04.459Z,11.70
2022-10-03T22:45:36.215Z,11.70
2022-10-03T22:48:11.052Z,11.60
2022-10-03T22:50:42.436Z,11.70
2022-10-03T22:53:15.526Z,11.60
2022-10-03T22:55:49.670Z,11.70
2022-10-03T22:58:18.409Z,11.70
2022-10-03T23:00:49.133Z,11.70
2022-10-03T23:03:20.124Z,11.70
2022-10-03T23:06:10.282Z,11.60
2022-10-03T23:08:51.499Z,11.70
2022-10-03T23:11:24.487Z,11.70
2022-10-03T23:13:53.195Z,11.70
2022-10-03T23:16:38.305Z,11.70
2022-10-03T23:19:16.241Z,11.80
2022-10-03T23:21:49.190Z,11.80
2022-10-03T23:24:25.471Z,11.80
2022-10-03T23:27:22.295Z,11.80
2022-10-03T23:30:34.940Z,11.80
2022-10-03T23:33:03.108Z,11.70
2022-10-03T23:35:40.774Z,11.80
2022-10-03T23:38:42.266Z,11.80
2022-10-03T23:41:13.722Z,11.80
2022-10-03T23:43:50.242Z,11.80
2022-10-03T23:46:21.140Z,11.80
2022-10-03T23:48:51.377Z,11.80
2022-10-03T23:51:22.231Z,11.80
2022-10-03T23:53:52.649Z,11.80
2022-10-03T23:56:32.314Z,11.80
2022-10-03T23:59:22.911Z,11.80
